Time;durP1;ratioP1;P1;durP2;ratioP2;P2;SDS_P1;SDS_P2;PMS_P1;PMS_P2;Temp;Humidity;BMP_temperature;BMP_pressure;BME280_temperature;BME280_humidity;BME280_pressure;Samples;Min_cycle;Max_cycle;Signal;HPM_P1;HPM_P2
2021/11/03 07:28:37;;;;;;;3.08;1.25;;;21.00;44.20;;;;;;4324132;29;20542;-62
2021/11/03 07:31:04;;;;;;;2.78;1.13;;;21.00;44.00;;;;;;4908362;29;20040;-62
2021/11/03 07:33:30;;;;;;;2.42;0.80;;;21.00;44.00;;;;;;4915930;29;20369;-61
2021/11/03 07:35:56;;;;;;;3.47;1.25;;;21.10;44.00;;;;;;4914812;29;20043;-60
2021/11/03 07:38:21;;;;;;;2.38;1.10;;;21.10;44.00;;;;;;4912496;29;20039;-61
2021/11/03 07:40:50;;;;;;;4.05;1.20;;;21.10;44.10;;;;;;4908882;29;20035;-61
2021/11/03 07:43:19;;;;;;;3.03;1.38;;;21.10;43.90;;;;;;4916858;29;20028;-61
2021/11/03 07:45:47;;;;;;;2.50;1.13;;;21.10;44.10;;;;;;4909745;29;20039;-60
2021/11/03 07:48:13;;;;;;;5.15;1.23;;;21.20;44.10;;;;;;4909645;29;20510;-61
2021/11/03 07:50:45;;;;;;;4.22;1.52;;;21.20;43.90;;;;;;4908941;29;20035;-60
2021/11/03 07:53:12;;;;;;;3.95;1.10;;;21.20;43.90;;;;;;4914722;29;20514;-60
2021/11/03 07:55:42;;;;;;;4.10;1.10;;;21.20;43.90;;;;;;4917180;29;20036;-61
2021/11/03 07:58:11;;;;;;;3.70;1.50;;;21.20;43.90;;;;;;4911241;29;20479;-62
2021/11/03 08:00:38;;;;;;;5.40;1.50;;;21.20;44.00;;;;;;4907602;29;20468;-60
2021/11/03 08:03:03;;;;;;;5.15;1.50;;;21.20;43.90;;;;;;4913454;29;20475;-61
2021/11/03 08:05:30;;;;;;;3.28;1.20;;;21.20;44.10;;;;;;4916813;29;20028;-61
2021/11/03 08:07:57;;;;;;;3.33;1.27;;;21.20;44.10;;;;;;4914373;29;20484;-60
2021/11/03 08:10:24;;;;;;;2.25;1.13;;;21.20;44.10;;;;;;4903366;29;20502;-60
2021/11/03 08:12:52;;;;;;;3.35;1.10;;;21.20;44.10;;;;;;4916432;29;20411;-61
2021/11/03 08:15:18;;;;;;;3.30;1.25;;;21.30;44.00;;;;;;4916153;29;20084;-61
2021/11/03 08:17:44;;;;;;;3.30;1.40;;;21.20;44.10;;;;;;4899669;29;20425;-60
2021/11/03 08:20:14;;;;;;;3.72;1.30;;;21.30;44.10;;;;;;4887926;29;20445;-61
2021/11/03 08:22:40;;;;;;;3.17;1.10;;;21.20;44.10;;;;;;4916436;29;20035;-62
2021/11/03 08:25:07;;;;;;;3.35;1.30;;;21.30;44.20;;;;;;4915748;29;20119;-60
2021/11/03 08:27:32;;;;;;;4.63;1.70;;;21.30;44.20;;;;;;4915211;29;20044;-60
2021/11/03 08:29:58;;;;;;;5.05;1.45;;;21.30;43.90;;;;;;4908253;29;20340;-60
2021/11/03 08:32:29;;;;;;;4.60;1.25;;;21.30;44.20;;;;;;4916790;29;20040;-60
2021/11/03 08:34:55;;;;;;;3.38;1.27;;;21.30;44.10;;;;;;4915482;29;20538;-60
2021/11/03 08:37:26;;;;;;;4.18;1.20;;;21.30;44.10;;;;;;4915864;29;20036;-61
2021/11/03 08:39:53;;;;;;;4.65;1.27;;;21.30;44.10;;;;;;4901459;29;20475;-60
2021/11/03 08:42:20;;;;;;;3.20;1.40;;;21.30;44.20;;;;;;4915529;29;20036;-60
2021/11/03 08:44:47;;;;;;;5.18;1.20;;;21.30;44.10;;;;;;4915682;29;20035;-61
2021/11/03 08:47:13;;;;;;;4.00;1.20;;;21.40;44.10;;;;;;4916028;29;20044;-61
2021/11/03 08:49:39;;;;;;;2.58;1.15;;;21.30;44.20;;;;;;4904645;29;20463;-61
2021/11/03 08:52:06;;;;;;;3.40;1.10;;;21.30;44.10;;;;;;4908635;29;20378;-60
2021/11/03 08:54:39;;;;;;;3.35;1.38;;;21.40;44.10;;;;;;4910518;29;20031;-60
2021/11/03 08:57:05;;;;;;;2.38;1.02;;;21.40;44.10;;;;;;4913178;29;20119;-62
2021/11/03 08:59:31;;;;;;;2.60;1.13;;;21.40;44.10;;;;;;4907030;29;20529;-61
2021/11/03 09:01:57;;;;;;;2.80;1.25;;;21.40;44.10;;;;;;4913963;29;20059;-61
2021/11/03 09:04:22;;;;;;;2.75;1.10;;;21.40;44.10;;;;;;4914696;29;20719;-60
2021/11/03 09:06:48;;;;;;;3.92;1.20;;;21.40;44.00;;;;;;4916612;29;20039;-61
2021/11/03 09:09:14;;;;;;;2.50;1.13;;;21.40;44.00;;;;;;4909027;29;20032;-60
2021/11/03 09:11:40;;;;;;;3.72;1.15;;;21.40;44.10;;;;;;4915638;29;20060;-60
2021/11/03 09:14:06;;;;;;;4.57;1.70;;;21.40;44.10;;;;;;4916159;29;20471;-61
2021/11/03 09:16:32;;;;;;;3.85;1.38;;;21.40;44.10;;;;;;4914882;29;20451;-61
2021/11/03 09:18:58;;;;;;;2.90;1.30;;;21.40;44.00;;;;;;4905863;29;20498;-60
2021/11/03 09:21:24;;;;;;;5.13;1.20;;;21.50;44.00;;;;;;4913958;29;20020;-60
2021/11/03 09:23:51;;;;;;;2.95;1.30;;;21.50;43.90;;;;;;4915638;29;20060;-60
2021/11/03 09:26:20;;;;;;;3.65;1.38;;;21.40;44.20;;;;;;4915902;29;20435;-60
2021/11/03 09:28:46;;;;;;;2.90;1.15;;;21.50;44.20;;;;;;4908799;29;20052;-61
2021/11/03 09:31:12;;;;;;;2.90;1.00;;;21.50;44.20;;;;;;4913319;29;20043;-60
2021/11/03 09:33:38;;;;;;;3.33;1.05;;;21.50;44.10;;;;;;4911540;29;20032;-61
2021/11/03 09:36:07;;;;;;;3.00;1.10;;;21.50;44.00;;;;;;4914823;29;20028;-61
2021/11/03 09:38:33;;;;;;;3.55;1.30;;;21.50;44.20;;;;;;4911250;29;20035;-61
2021/11/03 09:41:12;;;;;;;2.88;1.00;;;21.50;44.20;;;;;;4900675;29;20644;-62
2021/11/03 09:43:39;;;;;;;4.13;1.20;;;21.50;44.40;;;;;;4914387;29;20031;-61
2021/11/03 09:46:23;;;;;;;4.93;1.90;;;21.50;44.30;;;;;;4915524;29;20055;-61
2021/11/03 09:49:17;;;;;;;4.63;1.27;;;21.50;44.40;;;;;;4914218;29;20123;-61
2021/11/03 09:51:47;;;;;;;3.25;1.10;;;21.50;44.30;;;;;;4914403;29;20485;-62
2021/11/03 09:54:26;;;;;;;2.78;1.00;;;21.50;44.40;;;;;;4913295;29;20583;-61
2021/11/03 09:57:03;;;;;;;5.15;1.17;;;21.50;44.40;;;;;;4907305;29;20040;-60
2021/11/03 09:59:38;;;;;;;6.68;1.55;;;21.40;44.40;;;;;;4911738;29;20084;-61
2021/11/03 10:02:25;;;;;;;3.33;1.35;;;21.40;44.40;;;;;;4913942;29;20036;-61
2021/11/03 10:05:08;;;;;;;2.47;1.08;;;21.40;44.30;;;;;;4913530;29;20428;-61
2021/11/03 10:07:57;;;;;;;4.32;1.73;;;21.40;44.30;;;;;;4906583;29;20035;-62
2021/11/03 10:10:37;;;;;;;2.88;1.38;;;21.20;44.50;;;;;;4913851;29;20082;-63
2021/11/03 10:13:24;;;;;;;8.82;1.40;;;21.20;44.50;;;;;;4913522;29;20490;-63
2021/11/03 10:16:01;;;;;;;5.50;1.40;;;21.20;44.50;;;;;;4914025;29;20082;-63
2021/11/03 10:18:32;;;;;;;6.03;1.48;;;21.20;44.50;;;;;;4905827;29;20226;-64
2021/11/03 10:21:16;;;;;;;4.20;1.42;;;21.20;44.60;;;;;;4913691;29;20028;-63
2021/11/03 10:24:03;;;;;;;3.53;1.70;;;21.20;44.60;;;;;;4914525;29;20039;-62
2021/11/03 10:26:44;;;;;;;3.60;1.50;;;21.20;44.70;;;;;;4909147;29;20095;-62
2021/11/03 10:29:29;;;;;;;4.63;1.80;;;21.20;44.70;;;;;;4875050;29;1035887;-63
2021/11/03 10:32:01;;;;;;;4.03;1.50;;;21.20;44.80;;;;;;4915133;29;20047;-62
2021/11/03 10:34:33;;;;;;;3.22;1.50;;;21.20;44.80;;;;;;4913669;29;20043;-61
2021/11/03 10:37:04;;;;;;;4.32;1.45;;;21.20;44.90;;;;;;4901354;29;20567;-61
2021/11/03 10:39:48;;;;;;;4.00;1.55;;;21.20;45.00;;;;;;4908567;29;20552;-62
2021/11/03 10:42:25;;;;;;;5.60;1.90;;;21.20;45.00;;;;;;4913484;29;20031;-63
2021/11/03 10:45:21;;;;;;;5.47;1.40;;;21.20;45.10;;;;;;4913939;29;20311;-63
2021/11/03 10:47:53;;;;;;;3.85;1.67;;;21.20;45.20;;;;;;4902034;29;20084;-61
2021/11/03 10:50:27;;;;;;;4.38;1.80;;;21.20;45.20;;;;;;4918097;29;20036;-61
2021/11/03 10:52:59;;;;;;;4.13;1.50;;;21.20;45.20;;;;;;4915234;29;20123;-60
2021/11/03 10:55:44;;;;;;;3.67;1.45;;;21.20;45.20;;;;;;4918055;29;20075;-61
2021/11/03 10:58:12;;;;;;;4.65;1.63;;;21.20;45.20;;;;;;4905847;29;20039;-61
2021/11/03 11:00:59;;;;;;;4.78;1.60;;;21.20;45.40;;;;;;4919052;29;20017;-60
2021/11/03 11:03:36;;;;;;;3.10;1.40;;;21.20;45.40;;;;;;4917376;29;20028;-62
2021/11/03 11:06:13;;;;;;;3.47;1.60;;;21.20;45.50;;;;;;4918111;29;20029;-61
2021/11/03 11:08:49;;;;;;;3.85;1.52;;;21.10;45.30;;;;;;4904241;29;20044;-60
2021/11/03 11:11:16;;;;;;;4.30;1.75;;;21.10;45.40;;;;;;4914362;29;20035;-61
2021/11/03 11:13:50;;;;;;;6.13;2.10;;;21.10;45.40;;;;;;4918454;29;20509;-60
2021/11/03 11:16:15;;;;;;;3.88;1.55;;;21.10;45.40;;;;;;4915524;29;20036;-61
2021/11/03 11:19:06;;;;;;;3.40;1.60;;;21.10;45.70;;;;;;4905278;29;20035;-60
2021/11/03 11:21:45;;;;;;;4.65;1.60;;;21.10;45.70;;;;;;4913384;29;20452;-60
2021/11/03 11:24:13;;;;;;;7.53;1.73;;;21.10;45.70;;;;;;4909022;29;20111;-60
2021/11/03 11:27:19;;;;;;;3.97;1.70;;;21.10;45.70;;;;;;4912599;29;20043;-60
2021/11/03 11:29:48;;;;;;;3.85;1.58;;;21.10;45.40;;;;;;4917817;29;20037;-62
2021/11/03 11:32:39;;;;;;;17.40;3.58;;;21.10;45.40;;;;;;4916994;29;20096;-62
2021/11/03 11:35:27;;;;;;;5.18;1.60;;;21.10;45.20;;;;;;4911714;29;20063;-61
2021/11/03 11:37:59;;;;;;;4.10;1.50;;;21.00;45.30;;;;;;4912001;29;20071;-62
2021/11/03 11:40:56;;;;;;;4.05;1.42;;;21.00;45.30;;;;;;4914187;29;20568;-61
2021/11/03 11:43:33;;;;;;;4.45;1.23;;;21.00;45.20;;;;;;4913652;29;20233;-61
2021/11/03 11:46:26;;;;;;;4.07;1.35;;;21.00;45.30;;;;;;4904849;29;20036;-61
2021/11/03 11:48:56;;;;;;;4.75;1.52;;;21.00;45.20;;;;;;4905585;29;20051;-62
2021/11/03 11:51:36;;;;;;;8.32;2.05;;;21.00;45.20;;;;;;4916040;29;20036;-61
2021/11/03 11:54:03;;;;;;;7.88;1.60;;;21.00;45.10;;;;;;4915620;29;20067;-61
2021/11/03 11:56:33;;;;;;;7.47;1.85;;;21.00;45.00;;;;;;4905254;29;20396;-61
2021/11/03 11:59:05;;;;;;;6.70;1.90;;;21.00;45.20;;;;;;4915878;29;20392;-61
2021/11/03 12:01:48;;;;;;;5.15;1.60;;;21.00;44.90;;;;;;4916347;29;20504;-61
2021/11/03 12:04:19;;;;;;;7.18;1.90;;;21.00;44.90;;;;;;4914895;29;20028;-61
2021/11/03 12:06:51;;;;;;;4.93;1.65;;;20.90;44.90;;;;;;4910944;29;20099;-61
2021/11/03 12:09:31;;;;;;;4.03;1.58;;;20.90;44.90;;;;;;4914275;29;20100;-61
2021/11/03 12:12:06;;;;;;;4.70;1.60;;;20.90;44.90;;;;;;4912240;29;20080;-61
2021/11/03 12:14:50;;;;;;;3.90;1.55;;;20.90;44.90;;;;;;4913264;29;20068;-62
2021/11/03 12:17:37;;;;;;;6.80;1.75;;;20.90;44.80;;;;;;4915983;29;20039;-61
2021/11/03 12:20:26;;;;;;;4.55;1.73;;;20.90;44.80;;;;;;4908051;29;20468;-61
2021/11/03 12:22:55;;;;;;;7.43;1.45;;;20.90;44.90;;;;;;4887836;29;20055;-61
2021/11/03 12:25:23;;;;;;;4.95;1.40;;;20.90;44.80;;;;;;4905291;29;20519;-61
2021/11/03 12:27:51;;;;;;;2.75;1.35;;;20.80;44.80;;;;;;4908743;29;20048;-61
2021/11/03 12:30:20;;;;;;;5.38;1.75;;;20.90;44.80;;;;;;4908309;29;20043;-61
2021/11/03 12:32:45;;;;;;;6.45;1.30;;;20.80;44.80;;;;;;4911127;29;20501;-61
2021/11/03 12:35:20;;;;;;;4.72;1.30;;;20.90;44.90;;;;;;4919597;29;20038;-60
2021/11/03 12:38:16;;;;;;;5.75;1.40;;;20.90;44.80;;;;;;4915819;29;20518;-60
2021/11/03 12:40:44;;;;;;;4.40;1.15;;;20.90;44.80;;;;;;4872426;29;20108;-67
2021/11/03 12:43:19;;;;;;;4.03;1.40;;;20.90;44.80;;;;;;4916296;29;20020;-61
2021/11/03 12:46:06;;;;;;;5.18;1.30;;;20.90;45.00;;;;;;4912235;29;20024;-60
2021/11/03 12:48:36;;;;;;;2.63;1.10;;;20.90;44.90;;;;;;4906252;29;20039;-62
2021/11/03 12:51:14;;;;;;;5.22;1.30;;;21.00;45.00;;;;;;4910104;29;20047;-61
2021/11/03 12:53:51;;;;;;;4.90;1.27;;;20.90;45.10;;;;;;4911906;29;20080;-62
2021/11/03 12:56:22;;;;;;;2.75;1.13;;;20.90;45.00;;;;;;4909854;29;20297;-61
2021/11/03 12:58:56;;;;;;;5.53;1.63;;;21.00;45.00;;;;;;4902134;29;20496;-62
2021/11/03 13:01:23;;;;;;;4.22;1.30;;;20.90;45.10;;;;;;4911862;29;20475;-60
2021/11/03 13:04:02;;;;;;;5.00;1.35;;;20.90;45.10;;;;;;4910445;29;20083;-62
2021/11/03 13:07:11;;;;;;;4.75;1.58;;;21.00;45.20;;;;;;4913422;29;20357;-62
2021/11/03 13:09:40;;;;;;;3.72;1.20;;;20.90;45.30;;;;;;4874550;29;20136;-63
2021/11/03 13:12:29;;;;;;;4.40;1.27;;;21.00;45.20;;;;;;4915040;29;20047;-61
2021/11/03 13:15:28;;;;;;;2.88;0.80;;;20.90;45.30;;;;;;4911317;29;20028;-61
2021/11/03 13:18:08;;;;;;;3.42;1.20;;;20.90;45.20;;;;;;4911380;29;20024;-63
2021/11/03 13:20:38;;;;;;;4.18;1.25;;;20.90;45.30;;;;;;4895558;29;20031;-62
2021/11/03 13:23:05;;;;;;;3.42;1.35;;;20.90;45.30;;;;;;4914853;29;20511;-62
2021/11/03 13:25:38;;;;;;;5.25;1.17;;;20.90;45.40;;;;;;4914252;29;20036;-63
2021/11/03 13:28:13;;;;;;;2.92;1.20;;;20.90;45.40;;;;;;4911822;29;20055;-60
2021/11/03 13:30:41;;;;;;;5.20;1.45;;;20.90;45.40;;;;;;4914798;29;20036;-61
2021/11/03 13:33:29;;;;;;;2.42;1.13;;;20.90;45.40;;;;;;4914624;29;20229;-62
2021/11/03 13:36:20;;;;;;;3.70;1.50;;;20.90;45.40;;;;;;4914925;29;20076;-62
2021/11/03 13:39:15;;;;;;;4.43;1.20;;;20.80;45.30;;;;;;4914777;29;20102;-61
2021/11/03 13:41:44;;;;;;;2.63;1.13;;;20.90;45.30;;;;;;4847032;29;20132;-62
2021/11/03 13:44:34;;;;;;;3.10;1.20;;;20.90;45.50;;;;;;4915305;29;20043;-62
2021/11/03 13:47:03;;;;;;;2.28;1.23;;;20.90;45.80;;;;;;4915087;29;20040;-62
2021/11/03 13:49:36;;;;;;;4.15;1.30;;;20.80;45.80;;;;;;4914533;29;20032;-61
2021/11/03 13:52:23;;;;;;;2.50;1.10;;;20.90;45.80;;;;;;4914989;29;20059;-61
2021/11/03 13:54:52;;;;;;;4.03;1.20;;;20.90;45.80;;;;;;4913576;29;20475;-61
2021/11/03 13:57:39;;;;;;;3.63;1.30;;;20.90;45.80;;;;;;4903438;29;20036;-62
2021/11/03 14:00:22;;;;;;;3.58;0.98;;;20.90;45.80;;;;;;4913798;29;20032;-62
2021/11/03 14:02:49;;;;;;;2.55;1.02;;;20.80;45.80;;;;;;4914182;29;20428;-62
2021/11/03 14:05:41;;;;;;;4.50;1.85;;;20.80;45.80;;;;;;4914293;29;20028;-61
2021/11/03 14:08:26;;;;;;;4.95;1.23;;;20.90;45.80;;;;;;4907872;29;20091;-61
2021/11/03 14:10:52;;;;;;;5.80;1.30;;;20.80;46.00;;;;;;4896729;29;20365;-61
2021/11/03 14:13:18;;;;;;;2.60;1.13;;;20.80;46.20;;;;;;4896393;29;20053;-61
2021/11/03 14:15:43;;;;;;;4.50;1.17;;;20.80;46.00;;;;;;4896760;29;20033;-61
2021/11/03 14:18:13;;;;;;;3.63;1.50;;;20.90;45.90;;;;;;4896511;29;20043;-61
2021/11/03 14:20:46;;;;;;;4.03;1.13;;;20.90;46.00;;;;;;4896840;29;20025;-61
2021/11/03 14:23:16;;;;;;;7.07;2.80;;;20.90;46.00;;;;;;4899747;29;20055;-63
2021/11/03 14:25:42;;;;;;;3.60;1.05;;;20.80;45.80;;;;;;4915660;29;20476;-62
2021/11/03 14:28:11;;;;;;;3.00;1.25;;;20.80;46.10;;;;;;4917219;29;20107;-62
2021/11/03 14:30:56;;;;;;;2.92;1.08;;;20.80;46.00;;;;;;4917060;29;20028;-62
2021/11/03 14:33:30;;;;;;;2.42;1.00;;;20.90;46.40;;;;;;4917363;29;20052;-61
2021/11/03 14:35:58;;;;;;;3.63;0.93;;;20.90;46.00;;;;;;4917889;29;20112;-61
2021/11/03 14:38:31;;;;;;;2.20;0.90;;;20.90;46.00;;;;;;4915312;29;20059;-61
2021/11/03 14:40:57;;;;;;;7.57;1.80;;;20.90;46.10;;;;;;4917810;29;20096;-61
2021/11/03 14:43:23;;;;;;;2.05;1.02;;;20.90;46.10;;;;;;4915542;29;20036;-62
2021/11/03 14:45:49;;;;;;;3.72;1.00;;;20.90;46.10;;;;;;4917840;29;20096;-62
2021/11/03 14:48:17;;;;;;;3.15;1.20;;;20.90;46.20;;;;;;4917279;29;20378;-62
2021/11/03 14:50:44;;;;;;;3.00;1.10;;;20.90;46.10;;;;;;4914762;29;20060;-65
2021/11/03 14:53:17;;;;;;;3.72;0.90;;;20.80;46.10;;;;;;4913789;29;20033;-62
2021/11/03 14:55:46;;;;;;;4.40;1.20;;;20.90;46.10;;;;;;4916930;29;20028;-61
2021/11/03 14:58:13;;;;;;;3.28;1.20;;;20.90;46.10;;;;;;4914050;29;21268;-62
2021/11/03 15:00:48;;;;;;;7.05;1.30;;;20.90;46.00;;;;;;4917118;29;20039;-62
2021/11/03 15:03:17;;;;;;;3.30;1.10;;;20.90;46.10;;;;;;4916374;29;20080;-62
2021/11/03 15:05:44;;;;;;;5.65;1.10;;;20.90;46.10;;;;;;4915936;29;20028;-61
2021/11/03 15:08:17;;;;;;;3.85;1.05;;;20.90;46.20;;;;;;4917709;29;20103;-61
2021/11/03 15:10:43;;;;;;;3.15;1.05;;;20.90;46.20;;;;;;4917854;29;20546;-61
2021/11/03 15:13:08;;;;;;;3.72;1.20;;;20.80;46.40;;;;;;4917414;29;20119;-64
2021/11/03 15:15:34;;;;;;;3.40;1.10;;;20.80;46.20;;;;;;4914134;29;20020;-64
2021/11/03 15:17:59;;;;;;;4.10;1.30;;;20.90;46.30;;;;;;4916994;29;20507;-63
2021/11/03 15:20:32;;;;;;;3.60;1.20;;;20.90;46.30;;;;;;4918149;29;20080;-63
2021/11/03 15:22:59;;;;;;;4.25;1.40;;;20.90;46.30;;;;;;4917420;29;20116;-63
2021/11/03 15:25:27;;;;;;;5.55;1.55;;;20.90;46.30;;;;;;4917560;29;20413;-62
2021/11/03 15:27:53;;;;;;;3.42;1.30;;;20.90;46.30;;;;;;4918761;29;20051;-62
2021/11/03 15:30:20;;;;;;;3.25;1.25;;;20.80;46.30;;;;;;4917068;29;20055;-62
2021/11/03 15:32:49;;;;;;;4.03;1.20;;;20.80;46.30;;;;;;4913712;29;20059;-62
2021/11/03 15:35:36;;;;;;;2.90;0.90;;;20.80;46.30;;;;;;4916431;29;20103;-62
2021/11/03 15:38:14;;;;;;;3.72;1.40;;;20.80;46.30;;;;;;4914891;29;20302;-62
2021/11/03 15:40:43;;;;;;;6.13;1.00;;;20.80;46.30;;;;;;4915134;29;20027;-62
2021/11/03 15:43:11;;;;;;;4.60;1.73;;;20.80;46.40;;;;;;4915469;29;20020;-62
2021/11/03 15:45:38;;;;;;;3.45;1.33;;;20.80;46.40;;;;;;4916678;29;20523;-62
2021/11/03 15:48:11;;;;;;;3.05;0.90;;;20.80;46.30;;;;;;4916887;29;20066;-62
2021/11/03 15:50:37;;;;;;;1.92;0.80;;;20.80;46.30;;;;;;4915843;29;20038;-61
2021/11/03 15:53:14;;;;;;;5.38;1.27;;;20.70;46.30;;;;;;4918451;29;20428;-62
2021/11/03 15:55:40;;;;;;;4.30;0.90;;;20.70;46.30;;;;;;4918547;29;20095;-62
2021/11/03 15:58:06;;;;;;;2.58;1.00;;;20.70;46.30;;;;;;4918441;29;20032;-62
2021/11/03 16:00:35;;;;;;;2.40;0.80;;;20.80;46.30;;;;;;4918517;29;20035;-61
2021/11/03 16:03:05;;;;;;;4.00;1.00;;;20.70;46.30;;;;;;4918400;29;20028;-62
2021/11/03 16:05:36;;;;;;;1.75;0.80;;;20.70;46.30;;;;;;4918350;29;20020;-62
2021/11/03 16:08:07;;;;;;;2.47;0.80;;;20.70;46.30;;;;;;4918279;29;20032;-62
2021/11/03 16:10:37;;;;;;;3.35;1.05;;;20.70;46.20;;;;;;4918490;29;20028;-62
2021/11/03 16:13:04;;;;;;;4.70;1.10;;;20.70;46.20;;;;;;4918108;29;20553;-62
2021/11/03 16:15:29;;;;;;;3.92;0.90;;;20.70;46.20;;;;;;4918156;29;20501;-62
2021/11/03 16:17:55;;;;;;;3.78;1.15;;;20.70;46.20;;;;;;4918128;29;20028;-62
2021/11/03 16:20:24;;;;;;;3.70;1.05;;;20.70;46.20;;;;;;4918018;29;20031;-62
2021/11/03 16:22:53;;;;;;;2.13;0.93;;;20.70;46.10;;;;;;4917991;29;20068;-62
2021/11/03 16:25:31;;;;;;;3.65;1.38;;;20.70;46.10;;;;;;4918416;29;20031;-62
2021/11/03 16:27:59;;;;;;;2.13;0.90;;;20.60;46.20;;;;;;4917495;29;20048;-62
2021/11/03 16:30:30;;;;;;;6.03;1.75;;;20.70;46.10;;;;;;4917845;29;20047;-62
2021/11/03 16:32:55;;;;;;;2.47;0.85;;;20.60;46.20;;;;;;4917654;29;20476;-62
2021/11/03 16:35:21;;;;;;;7.60;1.00;;;20.70;46.20;;;;;;4916556;29;20024;-62
2021/11/03 16:37:48;;;;;;;3.33;1.10;;;20.70;46.10;;;;;;4917867;29;20032;-62
2021/11/03 16:40:16;;;;;;;1.98;0.82;;;20.70;46.10;;;;;;4917861;29;20111;-62
2021/11/03 16:42:44;;;;;;;1.83;0.80;;;20.70;46.10;;;;;;4917717;29;20032;-62
2021/11/03 16:45:16;;;;;;;1.77;0.80;;;20.70;46.10;;;;;;4916609;29;20021;-62
2021/11/03 16:47:47;;;;;;;1.83;0.80;;;20.60;46.10;;;;;;4917541;29;20388;-62
2021/11/03 16:50:24;;;;;;;3.78;1.10;;;20.70;46.00;;;;;;4917429;29;20032;-62
2021/11/03 16:52:51;;;;;;;2.97;1.00;;;20.60;46.10;;;;;;4917472;29;20044;-62
2021/11/03 16:55:19;;;;;;;3.33;1.00;;;20.60;46.10;;;;;;4917534;29;20028;-62
2021/11/03 16:57:45;;;;;;;3.92;1.13;;;20.70;46.00;;;;;;4917456;29;20024;-62
2021/11/03 17:00:32;;;;;;;2.80;1.08;;;20.60;46.00;;;;;;4917341;29;20028;-62
2021/11/03 17:02:58;;;;;;;1.88;0.93;;;20.70;46.10;;;;;;4917418;29;20047;-62
2021/11/03 17:05:26;;;;;;;2.78;1.40;;;20.60;46.00;;;;;;4917180;29;20024;-62
2021/11/03 17:07:55;;;;;;;3.17;1.20;;;20.60;46.10;;;;;;4917110;29;20574;-62
2021/11/03 17:10:23;;;;;;;2.92;1.23;;;20.60;46.00;;;;;;4917090;29;20025;-62
2021/11/03 17:12:49;;;;;;;1.88;0.90;;;20.60;46.00;;;;;;4916998;29;20119;-62
2021/11/03 17:15:17;;;;;;;3.13;0.85;;;20.60;46.00;;;;;;4917408;29;20027;-62
2021/11/03 17:17:43;;;;;;;2.58;1.13;;;20.60;46.00;;;;;;4917059;29;20197;-62
2021/11/03 17:20:11;;;;;;;4.53;1.25;;;20.60;46.00;;;;;;4916825;29;20108;-61
2021/11/03 17:22:37;;;;;;;2.75;0.90;;;20.60;46.10;;;;;;4916886;29;20111;-62
2021/11/03 17:25:04;;;;;;;2.25;0.80;;;20.60;46.10;;;;;;4915476;29;20187;-62
2021/11/03 17:27:34;;;;;;;5.82;1.02;;;20.60;46.10;;;;;;4916739;29;20136;-62
2021/11/03 17:30:06;;;;;;;2.25;0.70;;;20.60;46.10;;;;;;4916676;29;20060;-63
2021/11/03 17:32:36;;;;;;;2.30;0.82;;;20.60;46.10;;;;;;4916744;29;20040;-63
2021/11/03 17:35:11;;;;;;;3.30;1.27;;;20.60;46.10;;;;;;4916777;29;20579;-62
2021/11/03 17:37:37;;;;;;;4.88;1.30;;;20.60;46.10;;;;;;4916587;29;20503;-62
2021/11/03 17:40:04;;;;;;;4.65;1.27;;;20.60;46.10;;;;;;4916426;29;20024;-62
2021/11/03 17:42:36;;;;;;;1.40;0.65;;;20.60;46.10;;;;;;4915046;29;20028;-62
2021/11/03 17:45:07;;;;;;;2.78;0.90;;;20.60;46.10;;;;;;4916621;29;20027;-62
2021/11/03 17:47:34;;;;;;;3.58;1.02;;;20.50;46.10;;;;;;4916666;29;20557;-62
2021/11/03 17:50:14;;;;;;;1.77;0.80;;;20.60;46.10;;;;;;4915421;29;20111;-62
2021/11/03 17:52:41;;;;;;;2.72;1.10;;;20.60;46.10;;;;;;4916862;29;20044;-62
2021/11/03 17:55:07;;;;;;;4.85;0.98;;;20.60;46.10;;;;;;4916647;29;20020;-62
2021/11/03 17:57:37;;;;;;;5.65;1.20;;;20.60;46.10;;;;;;4922424;29;20080;-62
2021/11/03 18:00:14;;;;;;;4.32;1.02;;;20.50;46.10;;;;;;4922880;29;20460;-62
2021/11/03 18:02:40;;;;;;;4.10;1.10;;;20.60;46.00;;;;;;4922730;29;20040;-62
2021/11/03 18:05:06;;;;;;;2.60;0.88;;;20.50;46.00;;;;;;4922799;29;20091;-62
2021/11/03 18:07:31;;;;;;;2.30;0.90;;;20.60;46.00;;;;;;4922970;29;20038;-62
2021/11/03 18:09:57;;;;;;;2.17;0.90;;;20.60;46.10;;;;;;4922764;29;20035;-62
2021/11/03 18:12:27;;;;;;;3.03;1.13;;;20.50;46.10;;;;;;4922732;29;20127;-62
2021/11/03 18:14:56;;;;;;;4.05;1.08;;;20.60;46.10;;;;;;4922849;29;20032;-62
2021/11/03 18:17:25;;;;;;;2.97;1.00;;;20.50;46.10;;;;;;4922562;29;20024;-62
2021/11/03 18:19:51;;;;;;;2.15;1.08;;;20.50;46.10;;;;;;4922862;29;20047;-62
2021/11/03 18:22:18;;;;;;;2.83;0.90;;;20.50;46.10;;;;;;4922677;29;20623;-62
2021/11/03 18:24:44;;;;;;;3.95;1.25;;;20.50;46.10;;;;;;4922663;29;20059;-62
2021/11/03 18:27:18;;;;;;;2.47;1.02;;;20.60;46.10;;;;;;4922512;29;20035;-62
2021/11/03 18:29:59;;;;;;;5.50;1.33;;;20.60;46.10;;;;;;4922751;29;20024;-63
2021/11/03 18:32:25;;;;;;;2.22;1.00;;;20.50;46.10;;;;;;4922684;29;20043;-62
2021/11/03 18:34:51;;;;;;;3.13;1.08;;;20.50;46.10;;;;;;4922624;29;20024;-62
2021/11/03 18:37:17;;;;;;;3.33;1.10;;;20.50;46.10;;;;;;4921439;29;20497;-62
2021/11/03 18:39:43;;;;;;;3.65;1.17;;;20.50;46.00;;;;;;4921425;29;20024;-62
2021/11/03 18:42:24;;;;;;;3.25;1.17;;;20.50;46.00;;;;;;4922557;29;20542;-62
2021/11/03 18:44:50;;;;;;;2.78;0.90;;;20.50;46.10;;;;;;4922440;29;20111;-62
2021/11/03 18:47:17;;;;;;;3.88;1.00;;;20.50;46.00;;;;;;4922439;29;20453;-62
2021/11/03 18:49:44;;;;;;;3.67;1.30;;;20.50;46.00;;;;;;4922274;29;20539;-62
2021/11/03 18:52:12;;;;;;;4.53;1.48;;;20.50;46.00;;;;;;4922491;29;20064;-62
2021/11/03 18:54:50;;;;;;;3.20;1.08;;;20.50;46.10;;;;;;4922195;29;20039;-62
2021/11/03 18:57:19;;;;;;;3.58;1.00;;;20.50;46.10;;;;;;4922906;29;20054;-62
2021/11/03 18:59:45;;;;;;;4.47;0.98;;;20.50;46.10;;;;;;4922448;29;20032;-62
2021/11/03 19:02:10;;;;;;;2.67;0.98;;;20.50;46.10;;;;;;4922287;29;20099;-62
2021/11/03 19:04:36;;;;;;;2.85;1.08;;;20.50;46.10;;;;;;4922495;29;20088;-62
2021/11/03 19:07:02;;;;;;;3.35;1.00;;;20.50;46.10;;;;;;4921671;29;20031;-62
2021/11/03 19:09:32;;;;;;;2.15;0.98;;;20.50;46.10;;;;;;4918928;29;20099;-62
2021/11/03 19:12:06;;;;;;;4.55;1.17;;;20.50;46.10;;;;;;4919298;29;20034;-62
2021/11/03 19:14:33;;;;;;;2.17;1.00;;;20.50;46.00;;;;;;4919366;29;20024;-62
2021/11/03 19:17:03;;;;;;;3.70;0.95;;;20.50;46.10;;;;;;4919313;29;20673;-62
2021/11/03 19:19:29;;;;;;;1.95;0.80;;;20.50;46.00;;;;;;4919238;29;20468;-62
2021/11/03 19:21:55;;;;;;;2.42;0.98;;;20.50;46.10;;;;;;4919300;29;20032;-62
2021/11/03 19:24:48;;;;;;;4.63;1.30;;;20.50;46.10;;;;;;4919126;29;20039;-62
2021/11/03 19:27:18;;;;;;;2.00;0.90;;;20.50;46.10;;;;;;4919264;29;20487;-62
2021/11/03 19:29:44;;;;;;;3.10;1.23;;;20.50;46.10;;;;;;4918887;29;20035;-62
2021/11/03 19:32:11;;;;;;;4.03;1.13;;;20.50;46.10;;;;;;4918963;29;20032;-62
2021/11/03 19:34:37;;;;;;;4.30;1.25;;;20.50;46.10;;;;;;4918959;29;20530;-62
2021/11/03 19:37:04;;;;;;;5.22;1.27;;;20.50;46.10;;;;;;4918908;29;20028;-62
2021/11/03 19:39:37;;;;;;;2.60;1.10;;;20.50;46.10;;;;;;4918918;29;20036;-62
2021/11/03 19:42:03;;;;;;;4.00;1.10;;;20.50;46.10;;;;;;4918833;29;20183;-62
2021/11/03 19:44:31;;;;;;;4.18;1.20;;;20.50;46.10;;;;;;4917470;29;20032;-62
2021/11/03 19:46:59;;;;;;;2.60;1.05;;;20.50;46.10;;;;;;4918512;29;20024;-62
2021/11/03 19:49:24;;;;;;;4.50;1.30;;;20.50;46.10;;;;;;4918571;29;20040;-62
2021/11/03 19:51:54;;;;;;;3.45;1.10;;;20.50;46.10;;;;;;4918403;29;20047;-62
2021/11/03 19:54:30;;;;;;;2.35;1.10;;;20.50;46.10;;;;;;4918607;29;20028;-62
2021/11/03 19:57:04;;;;;;;2.30;0.98;;;20.50;46.10;;;;;;4918644;29;20030;-61
2021/11/03 19:59:30;;;;;;;3.40;0.95;;;20.50;46.10;;;;;;4918598;29;20152;-62
2021/11/03 20:01:56;;;;;;;3.10;0.98;;;20.50;46.10;;;;;;4918483;29;20383;-62
2021/11/03 20:04:24;;;;;;;1.80;0.90;;;20.50;46.10;;;;;;4918487;29;20091;-61
2021/11/03 20:06:55;;;;;;;2.53;0.90;;;20.50;46.10;;;;;;4918318;29;20052;-62
2021/11/03 20:09:22;;;;;;;3.05;0.90;;;20.50;46.10;;;;;;4918272;29;20037;-62
2021/11/03 20:11:49;;;;;;;2.38;1.08;;;20.50;46.10;;;;;;4918134;29;20035;-62
2021/11/03 20:14:16;;;;;;;3.88;1.38;;;20.50;46.10;;;;;;4918745;29;20036;-62
2021/11/03 20:16:57;;;;;;;2.53;0.95;;;20.50;46.10;;;;;;4918257;29;20052;-62
2021/11/03 20:19:31;;;;;;;3.17;0.90;;;20.50;46.10;;;;;;4918036;29;20028;-62
2021/11/03 20:22:04;;;;;;;4.55;1.23;;;20.50;46.10;;;;;;4918026;29;20464;-62
2021/11/03 20:24:40;;;;;;;3.15;1.15;;;20.50;46.10;;;;;;4918084;29;20043;-62
2021/11/03 20:27:28;;;;;;;3.03;1.08;;;20.50;46.10;;;;;;4918121;29;20063;-62
2021/11/03 20:30:07;;;;;;;3.15;1.02;;;20.50;46.10;;;;;;4918065;29;20039;-61
2021/11/03 20:32:38;;;;;;;1.88;1.00;;;20.50;46.20;;;;;;4917749;29;20087;-62
2021/11/03 20:35:05;;;;;;;3.50;1.20;;;20.50;46.10;;;;;;4917882;29;20024;-62
2021/11/03 20:37:31;;;;;;;2.90;1.02;;;20.50;46.10;;;;;;4917896;29;20031;-62